createdAt,value
2018-08-19T00:00:24.219Z,1017.04
2018-08-19T00:01:05.057Z,1017.02
2018-08-19T00:01:45.783Z,1016.99
2018-08-19T00:02:26.600Z,1017
2018-08-19T00:03:07.460Z,1017.02
2018-08-19T00:03:48.193Z,1017
2018-08-19T00:04:28.942Z,1016.95
2018-08-19T00:05:09.656Z,1016.99
2018-08-19T00:05:50.479Z,1016.99
2018-08-19T00:06:31.285Z,1016.96
2018-08-19T00:07:12.339Z,1016.98
2018-08-19T00:07:53.159Z,1016.94
2018-08-19T00:08:33.965Z,1016.97
2018-08-19T00:09:14.720Z,1016.94
2018-08-19T00:09:55.522Z,1016.95
2018-08-19T00:10:36.262Z,1016.97
2018-08-19T00:11:16.997Z,1016.99
2018-08-19T00:11:57.792Z,1016.99
2018-08-19T00:12:38.634Z,1017
2018-08-19T00:13:19.502Z,1017.02
2018-08-19T00:14:00.356Z,1017.01
2018-08-19T00:14:41.072Z,1017.03
2018-08-19T00:15:21.853Z,1017.04
2018-08-19T00:16:02.698Z,1017.03
2018-08-19T00:16:43.468Z,1017.03
2018-08-19T00:17:24.206Z,1017.04
2018-08-19T00:18:04.940Z,1017.02
2018-08-19T00:18:45.750Z,1017.01
2018-08-19T00:19:26.614Z,1017.02
2018-08-19T00:20:07.465Z,1016.99
2018-08-19T00:20:48.213Z,1016.98
2018-08-19T00:21:28.952Z,1016.98
2018-08-19T00:22:09.673Z,1017.02
2018-08-19T00:22:50.467Z,1017.01
2018-08-19T00:23:31.279Z,1016.99
2018-08-19T00:24:12.064Z,1017.02
2018-08-19T00:24:52.840Z,1017.03
2018-08-19T00:25:33.657Z,1017.04
2018-08-19T00:26:14.487Z,1017.03
2018-08-19T00:26:55.290Z,1017.01
2018-08-19T00:27:36.027Z,1016.98
2018-08-19T00:28:16.815Z,1017
2018-08-19T00:28:57.561Z,1016.97
2018-08-19T00:29:38.436Z,1017.01
2018-08-19T00:30:19.260Z,1016.99
2018-08-19T00:31:00.167Z,1016.95
2018-08-19T00:31:40.944Z,1016.97
2018-08-19T00:32:21.684Z,1016.99
2018-08-19T00:33:02.490Z,1016.95
2018-08-19T00:33:43.277Z,1017
2018-08-19T00:34:24.000Z,1017.01
2018-08-19T00:35:04.717Z,1016.97
2018-08-19T00:35:45.580Z,1017.01
2018-08-19T00:36:26.356Z,1017.05
2018-08-19T00:37:07.103Z,1017.05
2018-08-19T00:37:47.884Z,1017.04
2018-08-19T00:38:28.753Z,1017
2018-08-19T00:39:09.576Z,1017.01
2018-08-19T00:39:50.386Z,1017.03
2018-08-19T00:40:31.144Z,1017.03
2018-08-19T00:41:11.942Z,1017.02
2018-08-19T00:41:52.722Z,1017.01
2018-08-19T00:42:33.460Z,1017
2018-08-19T00:43:14.195Z,1016.98
2018-08-19T00:43:54.934Z,1017.01
2018-08-19T00:44:35.766Z,1016.99
2018-08-19T00:45:16.628Z,1017
2018-08-19T00:45:57.438Z,1016.99
2018-08-19T00:46:38.200Z,1017.02
2018-08-19T00:47:18.921Z,1017
2018-08-19T00:47:59.629Z,1016.98
2018-08-19T00:48:40.391Z,1016.98
2018-08-19T00:49:21.227Z,1016.94
2018-08-19T00:50:01.987Z,1016.92
2018-08-19T00:50:42.689Z,1016.97
2018-08-19T00:51:23.489Z,1016.96
2018-08-19T00:52:04.336Z,1016.97
2018-08-19T00:52:45.186Z,1016.93
2018-08-19T00:53:25.937Z,1016.93
2018-08-19T00:54:06.691Z,1016.92
2018-08-19T00:54:47.441Z,1016.89
2018-08-19T00:55:28.282Z,1016.9
2018-08-19T00:56:09.119Z,1016.9
2018-08-19T00:56:49.972Z,1016.89
2018-08-19T00:57:30.775Z,1016.85
2018-08-19T00:58:11.512Z,1016.88
2018-08-19T00:58:52.310Z,1016.86
2018-08-19T00:59:33.171Z,1016.86
2018-08-19T01:00:13.935Z,1016.85
2018-08-19T01:00:54.695Z,1016.87
2018-08-19T01:01:35.451Z,1016.87
2018-08-19T01:02:16.317Z,1016.82
2018-08-19T01:02:57.106Z,1016.85
2018-08-19T01:03:37.908Z,1016.87
2018-08-19T01:04:18.709Z,1016.86
2018-08-19T01:04:59.417Z,1016.88
2018-08-19T01:05:40.154Z,1016.84
2018-08-19T01:06:20.968Z,1016.81
2018-08-19T01:07:01.762Z,1016.86
2018-08-19T01:07:42.506Z,1016.88
2018-08-19T01:08:23.315Z,1016.89
2018-08-19T01:09:04.120Z,1016.89
2018-08-19T01:09:44.923Z,1016.87
2018-08-19T01:10:25.739Z,1016.89
2018-08-19T01:11:06.459Z,1016.93
2018-08-19T01:11:47.284Z,1016.88
2018-08-19T01:12:28.070Z,1016.9
2018-08-19T01:13:08.768Z,1016.93
2018-08-19T01:13:49.554Z,1016.95
2018-08-19T01:14:30.313Z,1016.9
2018-08-19T01:15:11.110Z,1016.93
2018-08-19T01:15:51.875Z,1016.92
2018-08-19T01:16:32.620Z,1016.94
2018-08-19T01:17:13.451Z,1016.92
2018-08-19T01:17:54.223Z,1016.92
2018-08-19T01:18:35.081Z,1016.95
2018-08-19T01:19:15.843Z,1016.94
2018-08-19T01:19:56.625Z,1016.92
2018-08-19T01:20:37.395Z,1016.97
2018-08-19T01:21:18.113Z,1016.92
2018-08-19T01:21:58.943Z,1016.93
2018-08-19T01:22:39.786Z,1016.93
2018-08-19T01:23:20.543Z,1016.93
2018-08-19T01:24:01.311Z,1016.9
2018-08-19T01:24:42.076Z,1016.92
2018-08-19T01:25:22.902Z,1016.91
2018-08-19T01:26:03.660Z,1016.94
2018-08-19T01:26:44.439Z,1016.93
2018-08-19T01:27:25.179Z,1016.93
2018-08-19T01:28:05.984Z,1016.9
2018-08-19T01:28:46.756Z,1016.89
2018-08-19T01:29:27.540Z,1016.86
2018-08-19T01:30:08.270Z,1016.9
2018-08-19T01:30:49.081Z,1016.93
2018-08-19T01:31:29.902Z,1016.91
2018-08-19T01:32:10.732Z,1016.9
2018-08-19T01:32:51.470Z,1016.88
2018-08-19T01:33:32.355Z,1016.91
2018-08-19T01:34:13.234Z,1016.91
2018-08-19T01:34:54.024Z,1016.93
2018-08-19T01:35:34.761Z,1016.91
2018-08-19T01:36:15.509Z,1016.91
2018-08-19T01:36:56.319Z,1016.88
2018-08-19T01:37:37.195Z,1016.89
2018-08-19T01:38:18.077Z,1016.9
2018-08-19T01:38:58.900Z,1016.95
2018-08-19T01:39:39.647Z,1016.96
2018-08-19T01:40:20.390Z,1016.89
2018-08-19T01:41:01.188Z,1016.94
2018-08-19T01:41:42.012Z,1016.92
2018-08-19T01:42:22.775Z,1016.92
2018-08-19T01:43:03.534Z,1016.93
2018-08-19T01:43:44.353Z,1016.93
2018-08-19T01:44:25.147Z,1016.93
2018-08-19T01:45:05.986Z,1016.94
2018-08-19T01:45:46.754Z,1016.97
2018-08-19T01:46:27.523Z,1016.94
2018-08-19T01:47:08.403Z,1016.92
2018-08-19T01:47:49.597Z,1016.94
2018-08-19T01:48:30.360Z,1016.92
2018-08-19T01:49:11.300Z,1016.91
2018-08-19T01:49:52.045Z,1016.88
2018-08-19T01:50:32.903Z,1016.91
2018-08-19T01:51:13.656Z,1016.89
2018-08-19T01:51:54.383Z,1016.91
2018-08-19T01:52:35.733Z,1016.93
2018-08-19T01:53:16.628Z,1016.94
2018-08-19T01:53:57.421Z,1016.93
2018-08-19T01:54:38.144Z,1016.91
2018-08-19T01:55:18.939Z,1016.9
2018-08-19T01:55:59.738Z,1016.93
2018-08-19T01:56:40.558Z,1016.92
2018-08-19T01:57:21.392Z,1016.9
2018-08-19T01:58:02.260Z,1016.89
2018-08-19T01:58:43.033Z,1016.92
2018-08-19T01:59:23.799Z,1016.89
2018-08-19T02:00:04.665Z,1016.92
2018-08-19T02:00:45.416Z,1016.95
2018-08-19T02:01:26.174Z,1016.91
2018-08-19T02:02:07.000Z,1016.91
2018-08-19T02:02:47.754Z,1016.91
2018-08-19T02:03:28.628Z,1016.9
2018-08-19T02:04:09.479Z,1016.89
2018-08-19T02:04:50.322Z,1016.92
2018-08-19T02:05:31.072Z,1016.9
2018-08-19T02:06:11.812Z,1016.89
2018-08-19T02:06:52.533Z,1016.89
2018-08-19T02:07:33.322Z,1016.89
2018-08-19T02:08:14.161Z,1016.87
2018-08-19T02:08:54.917Z,1016.9
2018-08-19T02:09:35.725Z,1016.92
2018-08-19T02:10:16.552Z,1016.88
2018-08-19T02:10:57.418Z,1016.86
2018-08-19T02:11:38.208Z,1016.87
2018-08-19T02:12:18.963Z,1016.86
2018-08-19T02:12:59.788Z,1016.87
2018-08-19T02:13:40.564Z,1016.85
2018-08-19T02:14:21.431Z,1016.84
2018-08-19T02:15:02.258Z,1016.86
2018-08-19T02:15:43.105Z,1016.81
2018-08-19T02:16:23.884Z,1016.85
2018-08-19T02:17:04.645Z,1016.84
2018-08-19T02:17:45.524Z,1016.83
2018-08-19T02:18:26.265Z,1016.86
2018-08-19T02:19:06.975Z,1016.87
2018-08-19T02:19:47.705Z,1016.83
2018-08-19T02:20:28.531Z,1016.85
2018-08-19T02:21:09.380Z,1016.88
2018-08-19T02:21:50.127Z,1016.86
2018-08-19T02:22:30.900Z,1016.85
2018-08-19T02:23:11.736Z,1016.89
2018-08-19T02:23:52.573Z,1016.84
2018-08-19T02:24:33.303Z,1016.86
2018-08-19T02:25:14.040Z,1016.86
2018-08-19T02:25:54.857Z,1016.83
2018-08-19T02:26:35.755Z,1016.87
2018-08-19T02:27:16.444Z,1016.85
2018-08-19T02:27:57.164Z,1016.9
2018-08-19T02:28:37.929Z,1016.89
2018-08-19T02:29:18.812Z,1016.85
2018-08-19T02:29:59.564Z,1016.83
2018-08-19T02:30:40.397Z,1016.86
2018-08-19T02:31:21.137Z,1016.85
2018-08-19T02:32:01.853Z,1016.85
2018-08-19T02:32:42.591Z,1016.85
2018-08-19T02:33:23.383Z,1016.84
2018-08-19T02:34:04.234Z,1016.87
2018-08-19T02:34:44.975Z,1016.88
2018-08-19T02:35:25.713Z,1016.83
2018-08-19T02:36:06.517Z,1016.86
2018-08-19T02:36:47.329Z,1016.85
2018-08-19T02:37:28.137Z,1016.85
2018-08-19T02:38:08.884Z,1016.82
2018-08-19T02:38:49.649Z,1016.83
2018-08-19T02:39:30.421Z,1016.85
2018-08-19T02:40:11.212Z,1016.85
2018-08-19T02:40:52.007Z,1016.83
2018-08-19T02:41:32.831Z,1016.82
2018-08-19T02:42:13.559Z,1016.85
2018-08-19T02:42:54.299Z,1016.83
2018-08-19T02:43:35.148Z,1016.83
2018-08-19T02:44:15.898Z,1016.82
2018-08-19T02:44:56.628Z,1016.84
2018-08-19T02:45:37.413Z,1016.82
2018-08-19T02:46:18.257Z,1016.85
2018-08-19T02:46:59.074Z,1016.85
2018-08-19T02:47:39.923Z,1016.81
2018-08-19T02:48:20.741Z,1016.81
2018-08-19T02:49:01.440Z,1016.79
2018-08-19T02:49:42.196Z,1016.83
2018-08-19T02:50:22.927Z,1016.78
2018-08-19T02:51:03.758Z,1016.81
2018-08-19T02:51:44.532Z,1016.81
2018-08-19T02:52:25.300Z,1016.83
2018-08-19T02:53:06.090Z,1016.8
2018-08-19T02:53:46.920Z,1016.8
2018-08-19T02:54:27.748Z,1016.82
2018-08-19T02:55:08.501Z,1016.84
2018-08-19T02:55:49.289Z,1016.81
2018-08-19T02:56:30.132Z,1016.83
2018-08-19T02:57:10.873Z,1016.84
2018-08-19T02:57:51.629Z,1016.87
2018-08-19T02:58:32.373Z,1016.8
2018-08-19T02:59:13.085Z,1016.82
2018-08-19T02:59:53.931Z,1016.81
2018-08-19T03:00:34.714Z,1016.83
2018-08-19T03:01:15.475Z,1016.83
2018-08-19T03:01:56.289Z,1016.78
2018-08-19T03:02:37.054Z,1016.82
2018-08-19T03:03:17.933Z,1016.81
2018-08-19T03:05:14.150Z,1016.78
2018-08-19T03:05:54.913Z,1016.77
2018-08-19T03:06:35.642Z,1016.76
2018-08-19T03:07:16.475Z,1016.75
2018-08-19T03:07:57.276Z,1016.76
2018-08-19T03:08:38.101Z,1016.76
2018-08-19T03:09:18.853Z,1016.75
2018-08-19T03:09:59.625Z,1016.8
2018-08-19T03:10:40.579Z,1016.78
2018-08-19T03:11:21.329Z,1016.8
2018-08-19T03:12:02.065Z,1016.76
2018-08-19T03:12:42.817Z,1016.76
2018-08-19T03:13:23.642Z,1016.74
2018-08-19T03:14:04.455Z,1016.78
2018-08-19T03:14:45.200Z,1016.76
2018-08-19T03:15:25.939Z,1016.76
2018-08-19T03:16:06.793Z,1016.75
2018-08-19T03:16:47.560Z,1016.74
2018-08-19T03:17:28.431Z,1016.74
2018-08-19T03:18:09.146Z,1016.74
2018-08-19T03:18:50.034Z,1016.76
2018-08-19T03:19:30.850Z,1016.74
2018-08-19T03:20:11.599Z,1016.75
2018-08-19T03:20:52.310Z,1016.75
2018-08-19T03:21:33.062Z,1016.76
2018-08-19T03:22:13.906Z,1016.77
2018-08-19T03:22:54.777Z,1016.72
2018-08-19T03:23:35.651Z,1016.76
2018-08-19T03:24:16.442Z,1016.71
2018-08-19T06:39:11.459Z,1017.5
2018-08-19T06:39:52.323Z,1017.48
2018-08-19T06:40:33.178Z,1017.53
2018-08-19T06:41:13.885Z,1017.49
2018-08-19T06:41:54.626Z,1017.52
2018-08-19T06:42:35.423Z,1017.51
2018-08-19T06:43:16.308Z,1017.54
2018-08-19T06:43:57.023Z,1017.55
2018-08-19T06:44:37.813Z,1017.56
2018-08-19T06:45:18.708Z,1017.53
2018-08-19T06:45:59.563Z,1017.54
2018-08-19T06:46:40.409Z,1017.56
2018-08-19T06:47:21.165Z,1017.56
2018-08-19T06:48:01.941Z,1017.56
2018-08-19T06:48:42.788Z,1017.54
2018-08-19T06:49:23.552Z,1017.59
2018-08-19T06:50:04.267Z,1017.57
2018-08-19T06:50:44.988Z,1017.54
2018-08-19T06:51:25.765Z,1017.59
2018-08-19T06:52:06.604Z,1017.59
2018-08-19T06:52:47.435Z,1017.59
2018-08-19T06:53:28.223Z,1017.59
2018-08-19T06:54:08.997Z,1017.58
2018-08-19T06:54:49.773Z,1017.59
2018-08-19T06:55:30.580Z,1017.63
2018-08-19T06:56:11.382Z,1017.63
2018-08-19T06:56:52.166Z,1017.61
2018-08-19T06:57:32.878Z,1017.62
2018-08-19T06:58:13.746Z,1017.64
2018-08-19T06:58:54.549Z,1017.65
2018-08-19T06:59:35.401Z,1017.66
2018-08-19T07:00:16.166Z,1017.64
2018-08-19T07:00:56.996Z,1017.69
2018-08-19T07:01:37.797Z,1017.66
2018-08-19T07:02:18.533Z,1017.65
2018-08-19T07:02:59.297Z,1017.7
2018-08-19T07:03:40.064Z,1017.69
2018-08-19T07:04:20.826Z,1017.69
2018-08-19T07:05:01.650Z,1017.71
2018-08-19T07:05:42.443Z,1017.71
2018-08-19T07:06:23.243Z,1017.74
2018-08-19T07:07:04.144Z,1017.71
2018-08-19T07:07:44.955Z,1017.74
2018-08-19T07:08:25.869Z,1017.71
2018-08-19T07:09:06.585Z,1017.7
2018-08-19T07:09:47.329Z,1017.69
2018-08-19T07:10:28.053Z,1017.68
2018-08-19T07:11:08.895Z,1017.75
2018-08-19T07:11:49.705Z,1017.73
2018-08-19T07:12:30.505Z,1017.71
2018-08-19T07:13:11.242Z,1017.69
2018-08-19T07:13:52.046Z,1017.74
2018-08-19T07:14:32.923Z,1017.73
2018-08-19T07:15:13.675Z,1017.73
2018-08-19T07:15:54.429Z,1017.71
2018-08-19T07:16:35.215Z,1017.75
2018-08-19T07:17:16.024Z,1017.74
2018-08-19T07:17:56.808Z,1017.76
2018-08-19T07:18:37.554Z,1017.77
2018-08-19T07:19:18.304Z,1017.76
2018-08-19T07:19:59.166Z,1017.76
2018-08-19T07:20:39.960Z,1017.76
2018-08-19T07:21:20.778Z,1017.77
2018-08-19T07:22:01.594Z,1017.77
2018-08-19T07:22:42.357Z,1017.83
2018-08-19T07:23:23.242Z,1017.8
2018-08-19T07:24:03.975Z,1017.84
2018-08-19T07:24:44.745Z,1017.84
2018-08-19T07:25:25.489Z,1017.84
2018-08-19T07:26:06.316Z,1017.82
2018-08-19T07:26:47.130Z,1017.81
2018-08-19T07:27:27.971Z,1017.8
2018-08-19T07:28:08.779Z,1017.83
2018-08-19T07:28:49.571Z,1017.82
2018-08-19T07:29:30.341Z,1017.84
2018-08-19T07:30:11.064Z,1017.84
2018-08-19T07:30:51.945Z,1017.84
2018-08-19T07:31:32.740Z,1017.83
2018-08-19T07:32:13.510Z,1017.85
2018-08-19T07:32:54.298Z,1017.85
2018-08-19T07:33:35.137Z,1017.83
2018-08-19T07:34:15.965Z,1017.8
2018-08-19T07:34:56.825Z,1017.82
2018-08-19T07:35:37.668Z,1017.81
2018-08-19T07:36:18.449Z,1017.78
2018-08-19T07:36:59.409Z,1017.79
2018-08-19T07:37:40.081Z,1017.74
2018-08-19T07:38:20.926Z,1017.73
2018-08-19T07:39:01.720Z,1017.73
2018-08-19T07:39:42.522Z,1017.69
2018-08-19T07:40:23.383Z,1017.73
2018-08-19T07:41:04.202Z,1017.7
2018-08-19T07:41:44.959Z,1017.72
2018-08-19T07:42:25.707Z,1017.69
2018-08-19T07:43:07.225Z,1017.67
2018-08-19T07:43:48.101Z,1017.69
2018-08-19T07:44:28.883Z,1017.67
2018-08-19T07:45:09.759Z,1017.66
2018-08-19T07:45:50.551Z,1017.67
2018-08-19T07:46:31.336Z,1017.65
2018-08-19T07:47:12.099Z,1017.64
2018-08-19T07:47:52.899Z,1017.69
2018-08-19T07:48:33.697Z,1017.66
2018-08-19T07:49:14.451Z,1017.65
2018-08-19T07:49:55.252Z,1017.65
2018-08-19T07:50:36.116Z,1017.67
2018-08-19T07:51:17.006Z,1017.65
2018-08-19T07:51:57.792Z,1017.7
2018-08-19T07:52:38.527Z,1017.65
2018-08-19T07:53:19.346Z,1017.67
2018-08-19T07:54:00.199Z,1017.71
2018-08-19T07:54:40.942Z,1017.65
2018-08-19T07:55:21.699Z,1017.68
2018-08-19T07:56:02.479Z,1017.68
2018-08-19T07:56:43.287Z,1017.74
2018-08-19T07:57:24.111Z,1017.69
2018-08-19T07:58:04.864Z,1017.68
2018-08-19T07:58:45.645Z,1017.67
2018-08-19T07:59:26.470Z,1017.67
2018-08-19T08:00:07.306Z,1017.68
2018-08-19T08:00:48.321Z,1017.69
2018-08-19T08:01:29.096Z,1017.67
2018-08-19T08:02:09.890Z,1017.7
2018-08-19T08:02:50.618Z,1017.7
2018-08-19T08:03:31.436Z,1017.68
2018-08-19T08:04:12.300Z,1017.7
2018-08-19T08:04:53.320Z,1017.74
2018-08-19T08:05:34.043Z,1017.76
2018-08-19T08:06:14.792Z,1017.72
2018-08-19T08:06:55.638Z,1017.73
2018-08-19T08:07:36.367Z,1017.78
2018-08-19T08:08:17.092Z,1017.77
2018-08-19T08:08:57.846Z,1017.75
2018-08-19T08:09:38.656Z,1017.76
2018-08-19T08:10:19.483Z,1017.8
2018-08-19T08:11:00.337Z,1017.76
2018-08-19T08:11:41.190Z,1017.77
2018-08-19T08:12:22.001Z,1017.79
2018-08-19T08:13:02.740Z,1017.78
2018-08-19T08:13:43.544Z,1017.78
2018-08-19T08:14:24.369Z,1017.78
2018-08-19T08:15:05.170Z,1017.75
2018-08-19T08:15:45.952Z,1017.81
2018-08-19T08:16:26.707Z,1017.75
2018-08-19T08:17:07.516Z,1017.79
2018-08-19T08:17:49.019Z,1017.76
2018-08-19T08:18:29.822Z,1017.75
2018-08-19T08:19:10.573Z,1017.73
2018-08-19T08:19:51.602Z,1017.72
2018-08-19T08:20:32.568Z,1017.78
2018-08-19T08:21:13.419Z,1017.71
2018-08-19T08:21:54.224Z,1017.78
2018-08-19T08:22:35.136Z,1017.77
2018-08-19T08:23:15.880Z,1017.72
2018-08-19T08:23:56.841Z,1017.73
2018-08-19T08:24:37.768Z,1017.82
2018-08-19T08:25:18.559Z,1017.74
2018-08-19T08:25:59.304Z,1017.77
2018-08-19T08:26:40.196Z,1017.75
2018-08-19T08:27:21.033Z,1017.71
2018-08-19T08:28:01.852Z,1017.77
2018-08-19T08:28:42.646Z,1017.73
2018-08-19T08:29:23.420Z,1017.74
2018-08-19T08:30:04.416Z,1017.72
2018-08-19T08:30:45.311Z,1017.73
2018-08-19T08:31:26.147Z,1017.73
2018-08-19T08:32:06.947Z,1017.73
2018-08-19T08:32:47.755Z,1017.74
2018-08-19T08:33:28.620Z,1017.75
2018-08-19T08:34:09.374Z,1017.72
2018-08-19T08:34:50.060Z,1017.72
2018-08-19T08:35:30.780Z,1017.69
2018-08-19T08:36:11.577Z,1017.73
2018-08-19T08:36:52.409Z,1017.71
2018-08-19T08:37:33.204Z,1017.7
2018-08-19T08:38:13.975Z,1017.67
2018-08-19T08:38:54.990Z,1017.71
2018-08-19T08:39:35.746Z,1017.7
2018-08-19T08:40:16.505Z,1017.69
2018-08-19T08:40:57.439Z,1017.66
2018-08-19T08:41:38.225Z,1017.72
2018-08-19T08:42:18.999Z,1017.68
2018-08-19T08:42:59.821Z,1017.73
2018-08-19T08:43:40.641Z,1017.74
2018-08-19T08:44:21.503Z,1017.73
2018-08-19T08:45:02.182Z,1017.68
2018-08-19T08:45:43.253Z,1017.72
2018-08-19T08:46:23.738Z,1017.74
2018-08-19T08:47:04.739Z,1017.74
2018-08-19T08:47:45.632Z,1017.71
2018-08-19T08:48:26.370Z,1017.73
2018-08-19T08:49:07.132Z,1017.73
2018-08-19T08:49:47.916Z,1017.74
2018-08-19T08:50:28.737Z,1017.7
2018-08-19T08:51:09.527Z,1017.75
2018-08-19T08:51:50.338Z,1017.75
2018-08-19T08:52:31.127Z,1017.75
2018-08-19T08:53:11.902Z,1017.76
2018-08-19T08:53:52.785Z,1017.79
2018-08-19T08:54:34.029Z,1017.76
2018-08-19T08:55:14.840Z,1017.77
2018-08-19T08:55:55.642Z,1017.74
2018-08-19T08:56:36.416Z,1017.78
2018-08-19T08:57:17.187Z,1017.75
2018-08-19T08:57:58.021Z,1017.78
2018-08-19T08:58:38.895Z,1017.77
2018-08-19T08:59:19.673Z,1017.77
2018-08-19T09:00:00.475Z,1017.71
2018-08-19T09:00:41.332Z,1017.75
2018-08-19T09:01:22.627Z,1017.76
2018-08-19T09:02:03.419Z,1017.72
2018-08-19T09:02:44.240Z,1017.74
2018-08-19T09:03:25.067Z,1017.73
2018-08-19T09:04:05.890Z,1017.72
2018-08-19T09:04:46.658Z,1017.71
2018-08-19T09:05:27.576Z,1017.7
2018-08-19T09:06:08.202Z,1017.68
2018-08-19T09:06:48.999Z,1017.73
2018-08-19T09:07:29.894Z,1017.71
2018-08-19T09:08:10.847Z,1017.72
2018-08-19T09:08:51.670Z,1017.68
2018-08-19T09:09:32.526Z,1017.75
2018-08-19T09:10:13.416Z,1017.7
2018-08-19T09:10:54.162Z,1017.7
2018-08-19T09:11:34.924Z,1017.72
2018-08-19T09:12:15.672Z,1017.76
2018-08-19T09:12:56.499Z,1017.76
2018-08-19T09:13:37.341Z,1017.78
2018-08-19T09:14:18.189Z,1017.7
2018-08-19T09:14:58.975Z,1017.74
2018-08-19T09:15:39.752Z,1017.73
2018-08-19T09:16:20.563Z,1017.76
2018-08-19T09:17:01.417Z,1017.73
2018-08-19T09:17:42.225Z,1017.74
2018-08-19T09:18:23.013Z,1017.75
2018-08-19T09:19:03.733Z,1017.73
2018-08-19T09:19:44.550Z,1017.73
2018-08-19T09:20:25.315Z,1017.74
2018-08-19T09:21:06.013Z,1017.75
2018-08-19T09:21:46.802Z,1017.73
2018-08-19T09:22:27.622Z,1017.74
2018-08-19T09:23:08.588Z,1017.74
2018-08-19T09:23:49.257Z,1017.73
2018-08-19T09:24:30.031Z,1017.74
2018-08-19T09:25:10.860Z,1017.71
2018-08-19T09:25:51.661Z,1017.71
2018-08-19T09:26:32.408Z,1017.72
2018-08-19T09:27:13.141Z,1017.75
2018-08-19T09:27:53.891Z,1017.71
2018-08-19T09:28:34.763Z,1017.73
2018-08-19T09:29:15.568Z,1017.73
2018-08-19T09:29:56.392Z,1017.75
2018-08-19T09:30:37.143Z,1017.79
2018-08-19T09:31:17.876Z,1017.77
2018-08-19T09:31:58.631Z,1017.75
2018-08-19T09:32:39.418Z,1017.74
2018-08-19T09:33:20.302Z,1017.72
2018-08-19T09:34:01.031Z,1017.72
2018-08-19T09:34:41.870Z,1017.72
2018-08-19T09:35:22.747Z,1017.74
2018-08-19T09:36:03.619Z,1017.74
2018-08-19T09:36:44.431Z,1017.71
2018-08-19T09:37:25.203Z,1017.7
2018-08-19T09:38:05.976Z,1017.69
2018-08-19T09:38:46.844Z,1017.7
2018-08-19T09:39:27.629Z,1017.72
2018-08-19T09:40:08.369Z,1017.67
2018-08-19T09:40:49.162Z,1017.69
2018-08-19T09:41:29.992Z,1017.76
2018-08-19T09:42:10.787Z,1017.67
2018-08-19T09:42:51.571Z,1017.68
2018-08-19T09:43:32.381Z,1017.71
2018-08-19T09:44:13.271Z,1017.66
2018-08-19T09:44:54.098Z,1017.71
2018-08-19T09:45:34.894Z,1017.69
2018-08-19T09:46:15.719Z,1017.68
2018-08-19T09:46:56.458Z,1017.65
2018-08-19T09:47:37.373Z,1017.67
2018-08-19T09:48:18.253Z,1017.69
2018-08-19T09:48:59.372Z,1017.71
2018-08-19T09:49:40.217Z,1017.69
2018-08-19T09:50:20.980Z,1017.7
2018-08-19T09:51:01.842Z,1017.71
2018-08-19T09:51:42.778Z,1017.69
2018-08-19T09:52:23.613Z,1017.68
2018-08-19T09:53:04.351Z,1017.71
2018-08-19T09:53:45.103Z,1017.69
2018-08-19T09:54:25.953Z,1017.71
2018-08-19T09:55:06.867Z,1017.68
2018-08-19T09:55:47.720Z,1017.68
2018-08-19T09:56:28.488Z,1017.63
2018-08-19T09:57:09.323Z,1017.67
2018-08-19T09:57:50.104Z,1017.66
2018-08-19T09:58:30.880Z,1017.62
2018-08-19T09:59:11.750Z,1017.61
2018-08-19T09:59:52.635Z,1017.6
2018-08-19T10:00:33.453Z,1017.61
2018-08-19T10:01:14.412Z,1017.62
2018-08-19T10:01:55.306Z,1017.62
2018-08-19T10:02:36.148Z,1017.64
2018-08-19T10:03:16.902Z,1017.61
2018-08-19T10:03:57.651Z,1017.58
2018-08-19T10:04:38.546Z,1017.59
2018-08-19T10:05:19.361Z,1017.62
2018-08-19T10:06:00.202Z,1017.56
2018-08-19T10:06:41.042Z,1017.59
2018-08-19T10:07:21.801Z,1017.61
2018-08-19T10:08:02.526Z,1017.58
2018-08-19T10:08:43.369Z,1017.63
2018-08-19T10:09:24.122Z,1017.59
2018-08-19T10:10:04.862Z,1017.6
2018-08-19T10:10:45.611Z,1017.59
2018-08-19T10:11:26.378Z,1017.56
2018-08-19T10:12:07.282Z,1017.61
2018-08-19T10:12:48.087Z,1017.57
2018-08-19T10:13:28.877Z,1017.55
2018-08-19T10:14:09.695Z,1017.58
2018-08-19T10:14:50.482Z,1017.58
2018-08-19T10:15:31.354Z,1017.6
2018-08-19T10:16:12.099Z,1017.59
2018-08-19T10:16:52.925Z,1017.61
2018-08-19T10:17:33.816Z,1017.62
2018-08-19T10:18:14.576Z,1017.6
2018-08-19T10:18:55.301Z,1017.59
2018-08-19T10:19:36.021Z,1017.61
2018-08-19T10:20:16.839Z,1017.61
2018-08-19T10:20:57.697Z,1017.63
2018-08-19T10:21:38.851Z,1017.65
2018-08-19T10:22:19.653Z,1017.62
2018-08-19T10:23:00.428Z,1017.62
2018-08-19T10:23:41.118Z,1017.63
2018-08-19T10:24:21.841Z,1017.61
2018-08-19T10:25:02.702Z,1017.62
2018-08-19T10:25:43.510Z,1017.67
2018-08-19T10:26:24.296Z,1017.62
2018-08-19T10:27:05.019Z,1017.62
2018-08-19T10:27:45.872Z,1017.61
2018-08-19T10:28:26.742Z,1017.61
2018-08-19T10:29:07.474Z,1017.56
2018-08-19T10:29:48.232Z,1017.6
2018-08-19T10:30:29.063Z,1017.61
2018-08-19T10:31:09.891Z,1017.58
2018-08-19T10:31:50.606Z,1017.58
2018-08-19T10:32:31.365Z,1017.59
2018-08-19T10:33:12.086Z,1017.6
2018-08-19T10:33:52.916Z,1017.66
2018-08-19T10:34:33.731Z,1017.62
2018-08-19T10:35:14.440Z,1017.62
2018-08-19T10:35:55.249Z,1017.61
2018-08-19T10:36:36.034Z,1017.59
2018-08-19T10:37:16.847Z,1017.6
2018-08-19T10:37:57.817Z,1017.6
2018-08-19T10:38:38.564Z,1017.61
2018-08-19T10:39:19.489Z,1017.61
2018-08-19T10:40:00.180Z,1017.6
2018-08-19T10:40:41.057Z,1017.57
2018-08-19T10:41:21.957Z,1017.56
2018-08-19T10:42:02.798Z,1017.54
2018-08-19T10:42:43.529Z,1017.57
2018-08-19T10:43:24.393Z,1017.56
2018-08-19T10:44:05.141Z,1017.5
2018-08-19T10:44:45.878Z,1017.52
2018-08-19T10:45:26.646Z,1017.57
2018-08-19T10:46:07.444Z,1017.53
2018-08-19T10:46:48.315Z,1017.52
2018-08-19T10:47:29.040Z,1017.55
2018-08-19T10:48:09.781Z,1017.51
2018-08-19T10:48:50.608Z,1017.53
2018-08-19T10:49:31.369Z,1017.53
2018-08-19T10:50:12.233Z,1017.52
2018-08-19T10:50:52.972Z,1017.52
2018-08-19T10:51:33.673Z,1017.53
2018-08-19T10:52:14.577Z,1017.53
2018-08-19T10:52:55.368Z,1017.52
2018-08-19T10:53:36.066Z,1017.53
2018-08-19T10:54:16.838Z,1017.5
2018-08-19T10:54:57.628Z,1017.51
2018-08-19T10:55:38.540Z,1017.51
2018-08-19T10:56:19.342Z,1017.51
2018-08-19T10:57:00.162Z,1017.54
2018-08-19T10:57:41.019Z,1017.51
2018-08-19T10:58:21.804Z,1017.53
2018-08-19T10:59:02.503Z,1017.52
2018-08-19T10:59:43.405Z,1017.51
2018-08-19T11:00:24.098Z,1017.55
2018-08-19T11:01:04.846Z,1017.58
2018-08-19T11:01:45.642Z,1017.56
2018-08-19T11:02:26.517Z,1017.55
2018-08-19T11:03:07.355Z,1017.55
2018-08-19T11:03:48.311Z,1017.58
2018-08-19T11:04:29.032Z,1017.55
2018-08-19T11:05:09.808Z,1017.58
2018-08-19T11:05:50.582Z,1017.58
2018-08-19T11:06:31.515Z,1017.54
2018-08-19T11:07:12.372Z,1017.56
2018-08-19T11:07:53.227Z,1017.59
2018-08-19T11:08:33.994Z,1017.57
2018-08-19T11:09:14.776Z,1017.57
2018-08-19T11:09:55.615Z,1017.58
2018-08-19T11:10:36.358Z,1017.6
2018-08-19T11:11:17.093Z,1017.54
2018-08-19T11:11:57.851Z,1017.56
2018-08-19T11:12:38.647Z,1017.56
2018-08-19T11:13:19.503Z,1017.57
2018-08-19T11:14:00.396Z,1017.55
2018-08-19T11:14:41.171Z,1017.54
2018-08-19T11:15:22.059Z,1017.58
2018-08-19T11:16:02.904Z,1017.56
2018-08-19T11:16:43.687Z,1017.61
2018-08-19T11:17:24.560Z,1017.57
2018-08-19T11:19:20.014Z,1017.56
2018-08-19T11:20:00.749Z,1017.55
2018-08-19T11:20:41.483Z,1017.57
2018-08-19T11:21:22.242Z,1017.57
2018-08-19T11:22:03.106Z,1017.56
2018-08-19T11:22:43.944Z,1017.52
2018-08-19T11:23:24.822Z,1017.47
2018-08-19T11:24:05.660Z,1017.46
2018-08-19T11:24:46.432Z,1017.5
2018-08-19T11:25:27.137Z,1017.5
2018-08-19T11:26:07.928Z,1017.49
2018-08-19T11:26:48.757Z,1017.42
2018-08-19T11:27:29.581Z,1017.37
2018-08-19T11:28:10.277Z,1017.4
2018-08-19T11:28:51.044Z,1017.41
2018-08-19T11:29:31.860Z,1017.38
2018-08-19T11:30:12.747Z,1017.37
2018-08-19T11:30:53.469Z,1017.36
2018-08-19T11:31:34.342Z,1017.33
2018-08-19T11:32:15.067Z,1017.37